sensor_id;sensor_type;location;lat;lon;timestamp;pressure;altitude;pressure_sealevel;temperature;humidity
9839;BME280;4958;48.150;11.506;2023-08-01T00:00:25;94180.75;;;22.12;56.63
9839;BME280;4958;48.150;11.506;2023-08-01T00:02:51;94189.44;;;22.08;56.96
9839;BME280;4958;48.150;11.506;2023-08-01T00:05:18;94192.56;;;22.10;57.17
9839;BME280;4958;48.150;11.506;2023-08-01T00:07:44;94175.97;;;22.14;56.38
9839;BME280;4958;48.150;11.506;2023-08-01T00:10:10;94141.34;;;22.17;55.81
9839;BME280;4958;48.150;11.506;2023-08-01T00:12:38;94131.91;;;22.16;55.75
9839;BME280;4958;48.150;11.506;2023-08-01T00:15:06;94109.88;;;22.17;55.58
9839;BME280;4958;48.150;11.506;2023-08-01T00:17:32;94092.78;;;22.20;55.26
9839;BME280;4958;48.150;11.506;2023-08-01T00:20:00;94103.56;;;22.18;55.52
9839;BME280;4958;48.150;11.506;2023-08-01T00:22:26;94088.69;;;22.14;55.39
9839;BME280;4958;48.150;11.506;2023-08-01T00:24:52;94073.25;;;22.12;54.97
9839;BME280;4958;48.150;11.506;2023-08-01T00:27:19;94059.06;;;22.13;54.59
9839;BME280;4958;48.150;11.506;2023-08-01T00:29:47;94052.75;;;22.14;54.41
9839;BME280;4958;48.150;11.506;2023-08-01T00:32:13;94036.06;;;22.10;54.50
9839;BME280;4958;48.150;11.506;2023-08-01T00:34:40;94030.22;;;22.13;54.46
9839;BME280;4958;48.150;11.506;2023-08-01T00:37:06;94026.09;;;22.12;54.55
9839;BME280;4958;48.150;11.506;2023-08-01T00:39:32;94018.91;;;22.18;54.53
9839;BME280;4958;48.150;11.506;2023-08-01T00:41:59;94022.78;;;22.20;54.38
9839;BME280;4958;48.150;11.506;2023-08-01T00:44:25;94045.41;;;22.16;55.07
9839;BME280;4958;48.150;11.506;2023-08-01T00:46:53;94028.59;;;22.17;54.88
9839;BME280;4958;48.150;11.506;2023-08-01T00:49:20;94032.84;;;22.13;55.18
9839;BME280;4958;48.150;11.506;2023-08-01T00:51:47;94020.06;;;22.12;54.92
9839;BME280;4958;48.150;11.506;2023-08-01T00:54:13;94025.09;;;22.08;55.16
9839;BME280;4958;48.150;11.506;2023-08-01T00:56:40;94029.34;;;22.04;55.44
9839;BME280;4958;48.150;11.506;2023-08-01T00:59:06;94036.25;;;21.95;55.36
9839;BME280;4958;48.150;11.506;2023-08-01T01:01:33;94030.44;;;21.98;55.52
9839;BME280;4958;48.150;11.506;2023-08-01T01:04:01;94028.09;;;21.96;55.55
9839;BME280;4958;48.150;11.506;2023-08-01T01:06:32;94029.91;;;22.01;55.44
9839;BME280;4958;48.150;11.506;2023-08-01T01:09:00;94060.34;;;21.97;56.37
9839;BME280;4958;48.150;11.506;2023-08-01T01:11:30;94051.00;;;21.91;55.94
9839;BME280;4958;48.150;11.506;2023-08-01T01:13:56;94041.03;;;21.93;55.99
9839;BME280;4958;48.150;11.506;2023-08-01T01:16:21;94029.66;;;21.97;55.97
9839;BME280;4958;48.150;11.506;2023-08-01T01:18:48;94030.59;;;21.88;56.38
9839;BME280;4958;48.150;11.506;2023-08-01T01:21:16;94025.88;;;21.90;56.16
9839;BME280;4958;48.150;11.506;2023-08-01T01:23:42;94039.53;;;21.87;56.27
9839;BME280;4958;48.150;11.506;2023-08-01T01:26:10;94041.38;;;21.86;56.61
9839;BME280;4958;48.150;11.506;2023-08-01T01:28:37;94040.03;;;21.89;56.47
9839;BME280;4958;48.150;11.506;2023-08-01T01:31:04;94044.22;;;21.90;56.62
9839;BME280;4958;48.150;11.506;2023-08-01T01:33:31;94053.91;;;21.89;56.35
9839;BME280;4958;48.150;11.506;2023-08-01T01:36:00;94045.28;;;21.89;56.63
9839;BME280;4958;48.150;11.506;2023-08-01T01:38:28;94051.28;;;21.89;56.61
9839;BME280;4958;48.150;11.506;2023-08-01T01:40:54;94052.34;;;21.88;56.83
9839;BME280;4958;48.150;11.506;2023-08-01T01:43:20;94067.63;;;21.81;57.06
9839;BME280;4958;48.150;11.506;2023-08-01T01:45:47;94066.28;;;21.84;57.36
9839;BME280;4958;48.150;11.506;2023-08-01T01:48:12;94080.69;;;21.86;57.60
9839;BME280;4958;48.150;11.506;2023-08-01T01:50:39;94104.25;;;21.86;58.08
9839;BME280;4958;48.150;11.506;2023-08-01T01:53:05;94115.03;;;21.85;58.39
9839;BME280;4958;48.150;11.506;2023-08-01T01:55:33;94118.69;;;21.84;58.75
9839;BME280;4958;48.150;11.506;2023-08-01T01:57:59;94129.19;;;21.84;58.92
9839;BME280;4958;48.150;11.506;2023-08-01T02:00:26;94142.78;;;21.86;59.59
9839;BME280;4958;48.150;11.506;2023-08-01T02:02:52;94163.75;;;21.86;60.21
9839;BME280;4958;48.150;11.506;2023-08-01T02:05:19;94161.69;;;21.83;60.58
9839;BME280;4958;48.150;11.506;2023-08-01T02:07:45;94146.75;;;21.83;60.23
9839;BME280;4958;48.150;11.506;2023-08-01T02:10:11;94158.28;;;21.82;60.62
9839;BME280;4958;48.150;11.506;2023-08-01T02:12:39;94164.81;;;21.85;60.90
9839;BME280;4958;48.150;11.506;2023-08-01T02:15:06;94187.38;;;21.81;61.36
9839;BME280;4958;48.150;11.506;2023-08-01T02:17:33;94201.03;;;21.78;61.87
9839;BME280;4958;48.150;11.506;2023-08-01T02:19:59;94226.75;;;21.76;62.77
9839;BME280;4958;48.150;11.506;2023-08-01T02:22:26;94195.53;;;21.79;62.03
9839;BME280;4958;48.150;11.506;2023-08-01T02:24:52;94186.31;;;21.82;61.95
9839;BME280;4958;48.150;11.506;2023-08-01T02:27:19;94201.78;;;21.83;62.22
9839;BME280;4958;48.150;11.506;2023-08-01T02:29:46;94191.50;;;21.87;61.92
9839;BME280;4958;48.150;11.506;2023-08-01T02:32:15;94203.56;;;21.88;62.45
9839;BME280;4958;48.150;11.506;2023-08-01T02:34:41;94237.91;;;21.86;63.18
9839;BME280;4958;48.150;11.506;2023-08-01T02:37:07;94244.19;;;21.85;63.63
9839;BME280;4958;48.150;11.506;2023-08-01T02:39:34;94253.69;;;21.81;63.92
9839;BME280;4958;48.150;11.506;2023-08-01T02:42:01;94251.06;;;21.81;63.89
9839;BME280;4958;48.150;11.506;2023-08-01T02:44:28;94295.44;;;21.73;65.55
9839;BME280;4958;48.150;11.506;2023-08-01T02:46:56;94290.47;;;21.71;65.53
9839;BME280;4958;48.150;11.506;2023-08-01T02:49:22;94318.00;;;21.68;65.95
9839;BME280;4958;48.150;11.506;2023-08-01T02:51:49;94313.28;;;21.70;65.71
9839;BME280;4958;48.150;11.506;2023-08-01T02:54:15;94353.13;;;21.67;67.08
9839;BME280;4958;48.150;11.506;2023-08-01T02:56:42;94365.16;;;21.68;67.62
9839;BME280;4958;48.150;11.506;2023-08-01T02:59:08;94346.81;;;21.68;67.32
9839;BME280;4958;48.150;11.506;2023-08-01T03:01:35;94392.97;;;21.64;68.86
9839;BME280;4958;48.150;11.506;2023-08-01T03:04:04;94410.28;;;21.60;68.68
9839;BME280;4958;48.150;11.506;2023-08-01T03:06:30;94433.06;;;21.60;70.31
9839;BME280;4958;48.150;11.506;2023-08-01T03:08:57;94441.72;;;21.60;70.22
9839;BME280;4958;48.150;11.506;2023-08-01T03:11:23;94490.00;;;21.49;73.00
9839;BME280;4958;48.150;11.506;2023-08-01T03:13:50;94473.22;;;21.50;72.00
9839;BME280;4958;48.150;11.506;2023-08-01T03:16:16;94481.09;;;21.45;72.45
9839;BME280;4958;48.150;11.506;2023-08-01T03:18:43;94451.00;;;21.43;71.38
9839;BME280;4958;48.150;11.506;2023-08-01T03:21:10;94487.94;;;21.36;73.44
9839;BME280;4958;48.150;11.506;2023-08-01T03:23:38;94517.00;;;21.40;74.14
9839;BME280;4958;48.150;11.506;2023-08-01T03:26:05;94524.91;;;21.34;74.84
9839;BME280;4958;48.150;11.506;2023-08-01T03:28:31;94535.91;;;21.31;75.25
9839;BME280;4958;48.150;11.506;2023-08-01T03:30:58;94536.69;;;21.32;74.72
9839;BME280;4958;48.150;11.506;2023-08-01T03:33:24;94536.97;;;21.30;75.38
9839;BME280;4958;48.150;11.506;2023-08-01T03:35:51;94572.31;;;21.28;76.55
9839;BME280;4958;48.150;11.506;2023-08-01T03:38:19;94584.38;;;21.14;77.08
9839;BME280;4958;48.150;11.506;2023-08-01T03:40:45;94525.50;;;21.11;74.08
9839;BME280;4958;48.150;11.506;2023-08-01T03:43:12;94532.03;;;21.09;75.31
9839;BME280;4958;48.150;11.506;2023-08-01T03:45:39;94487.81;;;21.07;73.31
9839;BME280;4958;48.150;11.506;2023-08-01T03:48:05;94504.06;;;21.04;73.52
9839;BME280;4958;48.150;11.506;2023-08-01T03:50:32;94508.25;;;21.00;73.92
9839;BME280;4958;48.150;11.506;2023-08-01T03:52:58;94495.16;;;21.00;73.44
9839;BME280;4958;48.150;11.506;2023-08-01T03:55:26;94537.28;;;20.98;74.67
9839;BME280;4958;48.150;11.506;2023-08-01T03:57:52;94546.97;;;20.98;75.30
9839;BME280;4958;48.150;11.506;2023-08-01T04:00:19;94578.94;;;20.95;76.29
9839;BME280;4958;48.150;11.506;2023-08-01T04:02:45;94601.97;;;20.93;77.22
9839;BME280;4958;48.150;11.506;2023-08-01T04:05:12;94614.53;;;20.86;77.65
9839;BME280;4958;48.150;11.506;2023-08-01T04:07:38;94624.75;;;20.87;77.74
9839;BME280;4958;48.150;11.506;2023-08-01T04:10:06;94649.34;;;20.81;79.31
9839;BME280;4958;48.150;11.506;2023-08-01T04:12:34;94632.84;;;20.81;78.25
9839;BME280;4958;48.150;11.506;2023-08-01T04:15:00;94627.63;;;20.81;78.37
9839;BME280;4958;48.150;11.506;2023-08-01T04:17:27;94634.94;;;20.84;78.22
9839;BME280;4958;48.150;11.506;2023-08-01T04:19:54;94640.72;;;20.76;79.26
9839;BME280;4958;48.150;11.506;2023-08-01T04:22:21;94670.53;;;20.75;81.22
9839;BME280;4958;48.150;11.506;2023-08-01T04:24:47;94729.91;;;20.64;84.31
9839;BME280;4958;48.150;11.506;2023-08-01T04:27:14;94711.84;;;20.62;83.44
9839;BME280;4958;48.150;11.506;2023-08-01T04:29:41;94759.72;;;20.58;86.53
9839;BME280;4958;48.150;11.506;2023-08-01T04:32:08;94773.06;;;20.51;86.63
9839;BME280;4958;48.150;11.506;2023-08-01T04:34:37;94760.78;;;20.67;85.99
9839;BME280;4958;48.150;11.506;2023-08-01T04:37:04;94753.22;;;20.76;85.50
9839;BME280;4958;48.150;11.506;2023-08-01T04:39:30;94721.03;;;20.80;84.70
9839;BME280;4958;48.150;11.506;2023-08-01T04:41:57;94724.16;;;20.67;85.27
9839;BME280;4958;48.150;11.506;2023-08-01T04:44:23;94713.97;;;20.71;84.42
9839;BME280;4958;48.150;11.506;2023-08-01T04:46:52;94685.44;;;20.69;83.35
9839;BME280;4958;48.150;11.506;2023-08-01T04:49:18;94681.53;;;20.66;83.34
9839;BME280;4958;48.150;11.506;2023-08-01T04:51:44;94674.97;;;20.79;82.84
9839;BME280;4958;48.150;11.506;2023-08-01T04:54:11;94663.72;;;20.79;81.77
9839;BME280;4958;48.150;11.506;2023-08-01T04:56:37;94680.47;;;20.73;83.43
9839;BME280;4958;48.150;11.506;2023-08-01T04:59:04;94671.31;;;20.70;83.09
9839;BME280;4958;48.150;11.506;2023-08-01T05:01:30;94679.16;;;20.60;83.96
9839;BME280;4958;48.150;11.506;2023-08-01T05:03:58;94682.06;;;20.58;83.97
9839;BME280;4958;48.150;11.506;2023-08-01T05:06:25;94688.31;;;20.57;84.37
9839;BME280;4958;48.150;11.506;2023-08-01T05:08:53;94685.69;;;20.52;84.92
9839;BME280;4958;48.150;11.506;2023-08-01T05:11:19;94689.63;;;20.55;84.93
9839;BME280;4958;48.150;11.506;2023-08-01T05:13:46;94699.56;;;20.53;85.72
9839;BME280;4958;48.150;11.506;2023-08-01T05:16:12;94717.59;;;20.49;87.13
9839;BME280;4958;48.150;11.506;2023-08-01T05:18:38;94704.75;;;20.43;86.57
9839;BME280;4958;48.150;11.506;2023-08-01T05:21:06;94696.16;;;20.47;86.56
9839;BME280;4958;48.150;11.506;2023-08-01T05:23:33;94694.31;;;20.43;86.95
9839;BME280;4958;48.150;11.506;2023-08-01T05:25:59;94715.75;;;20.40;87.79
9839;BME280;4958;48.150;11.506;2023-08-01T05:28:25;94725.66;;;20.32;89.51
9839;BME280;4958;48.150;11.506;2023-08-01T05:30:52;94695.09;;;20.38;86.81
9839;BME280;4958;48.150;11.506;2023-08-01T05:33:18;94664.97;;;20.30;85.00
9839;BME280;4958;48.150;11.506;2023-08-01T05:35:44;94656.34;;;20.25;84.56
9839;BME280;4958;48.150;11.506;2023-08-01T05:38:12;94660.25;;;20.22;84.65
9839;BME280;4958;48.150;11.506;2023-08-01T05:40:39;94653.97;;;20.13;85.17
9839;BME280;4958;48.150;11.506;2023-08-01T05:43:05;94674.63;;;20.10;85.50
9839;BME280;4958;48.150;11.506;2023-08-01T05:45:33;94698.66;;;20.12;86.62
9839;BME280;4958;48.150;11.506;2023-08-01T05:48:00;94703.38;;;20.15;86.63
9839;BME280;4958;48.150;11.506;2023-08-01T05:50:26;94680.91;;;20.14;85.47
9839;BME280;4958;48.150;11.506;2023-08-01T05:52:53;94676.97;;;20.01;85.76
9839;BME280;4958;48.150;11.506;2023-08-01T05:55:20;94690.81;;;20.07;86.02
9839;BME280;4958;48.150;11.506;2023-08-01T05:57:47;94667.53;;;20.00;84.85
9839;BME280;4958;48.150;11.506;2023-08-01T06:00:17;94675.63;;;20.04;85.02
9839;BME280;4958;48.150;11.506;2023-08-01T06:02:44;94675.13;;;20.07;85.04
9839;BME280;4958;48.150;11.506;2023-08-01T06:05:10;94640.88;;;19.98;83.77
9839;BME280;4958;48.150;11.506;2023-08-01T06:07:37;94630.16;;;19.94;83.10
9839;BME280;4958;48.150;11.506;2023-08-01T06:10:04;94632.25;;;19.97;83.64
9839;BME280;4958;48.150;11.506;2023-08-01T06:12:32;94613.44;;;19.95;82.68
9839;BME280;4958;48.150;11.506;2023-08-01T06:14:58;94628.59;;;19.93;83.39
9839;BME280;4958;48.150;11.506;2023-08-01T06:17:24;94624.94;;;19.99;83.02
9839;BME280;4958;48.150;11.506;2023-08-01T06:19:51;94611.09;;;20.04;82.91
9839;BME280;4958;48.150;11.506;2023-08-01T06:22:19;94594.38;;;20.05;82.18
9839;BME280;4958;48.150;11.506;2023-08-01T06:24:46;94604.56;;;20.07;82.54
9839;BME280;4958;48.150;11.506;2023-08-01T06:27:12;94551.25;;;19.97;80.34
9839;BME280;4958;48.150;11.506;2023-08-01T06:29:41;94556.22;;;20.04;80.55
9839;BME280;4958;48.150;11.506;2023-08-01T06:32:07;94546.81;;;20.08;80.60
9839;BME280;4958;48.150;11.506;2023-08-01T06:34:34;94494.53;;;20.08;78.56
9839;BME280;4958;48.150;11.506;2023-08-01T06:37:00;94482.53;;;20.12;78.20
9839;BME280;4958;48.150;11.506;2023-08-01T06:39:27;94432.34;;;20.05;76.05
9839;BME280;4958;48.150;11.506;2023-08-01T06:41:53;94407.78;;;20.11;75.24
9839;BME280;4958;48.150;11.506;2023-08-01T06:44:19;94397.06;;;20.08;74.95
9839;BME280;4958;48.150;11.506;2023-08-01T06:46:47;94375.13;;;20.14;74.45
9839;BME280;4958;48.150;11.506;2023-08-01T06:49:14;94371.94;;;20.22;74.11
9839;BME280;4958;48.150;11.506;2023-08-01T06:51:40;94329.31;;;20.31;72.61
9839;BME280;4958;48.150;11.506;2023-08-01T06:54:08;94275.50;;;20.25;71.04
9839;BME280;4958;48.150;11.506;2023-08-01T06:56:34;94239.69;;;20.21;70.57
9839;BME280;4958;48.150;11.506;2023-08-01T06:59:00;94217.53;;;20.13;69.47
9839;BME280;4958;48.150;11.506;2023-08-01T07:01:27;94194.03;;;20.08;68.90
9839;BME280;4958;48.150;11.506;2023-08-01T07:03:55;94211.78;;;20.16;69.40
9839;BME280;4958;48.150;11.506;2023-08-01T07:06:22;94188.19;;;20.21;68.66
9839;BME280;4958;48.150;11.506;2023-08-01T07:08:49;94167.25;;;20.31;68.15
9839;BME280;4958;48.150;11.506;2023-08-01T07:11:15;94150.50;;;20.32;67.86
9839;BME280;4958;48.150;11.506;2023-08-01T07:13:42;94150.19;;;20.44;67.52
9839;BME280;4958;48.150;11.506;2023-08-01T07:16:08;94106.59;;;20.40;66.46
9839;BME280;4958;48.150;11.506;2023-08-01T07:18:35;94071.03;;;20.33;65.74
9839;BME280;4958;48.150;11.506;2023-08-01T07:21:04;94057.22;;;20.28;65.64
9839;BME280;4958;48.150;11.506;2023-08-01T07:23:32;94053.53;;;20.34;65.94
9839;BME280;4958;48.150;11.506;2023-08-01T07:25:59;94027.66;;;20.32;65.32
9839;BME280;4958;48.150;11.506;2023-08-01T07:28:26;94013.81;;;20.37;64.92
9839;BME280;4958;48.150;11.506;2023-08-01T07:30:58;94026.13;;;20.26;64.83
9839;BME280;4958;48.150;11.506;2023-08-01T07:33:25;94022.03;;;20.20;64.68
9839;BME280;4958;48.150;11.506;2023-08-01T07:35:51;94033.19;;;20.26;64.66
9839;BME280;4958;48.150;11.506;2023-08-01T07:38:19;93992.53;;;20.15;63.86
9839;BME280;4958;48.150;11.506;2023-08-01T07:40:46;93976.31;;;20.18;63.72
9839;BME280;4958;48.150;11.506;2023-08-01T07:43:12;93942.53;;;20.21;63.21
9839;BME280;4958;48.150;11.506;2023-08-01T07:45:39;93964.72;;;20.24;63.13
9839;BME280;4958;48.150;11.506;2023-08-01T07:48:05;93936.69;;;20.34;62.86
9839;BME280;4958;48.150;11.506;2023-08-01T07:50:31;93943.94;;;20.43;62.83
9839;BME280;4958;48.150;11.506;2023-08-01T07:52:58;93932.38;;;20.49;62.65
9839;BME280;4958;48.150;11.506;2023-08-01T07:55:26;93900.16;;;20.53;61.84
9839;BME280;4958;48.150;11.506;2023-08-01T07:57:52;93910.75;;;20.62;62.06
9839;BME280;4958;48.150;11.506;2023-08-01T08:00:19;93899.38;;;20.77;61.90
9839;BME280;4958;48.150;11.506;2023-08-01T08:02:46;93946.63;;;20.80;62.43
9839;BME280;4958;48.150;11.506;2023-08-01T08:05:12;93980.03;;;20.88;62.61
9839;BME280;4958;48.150;11.506;2023-08-01T08:07:39;94036.41;;;20.99;64.05
9839;BME280;4958;48.150;11.506;2023-08-01T08:10:06;93995.56;;;21.03;62.44
9839;BME280;4958;48.150;11.506;2023-08-01T08:12:34;94010.09;;;21.15;63.51
9839;BME280;4958;48.150;11.506;2023-08-01T08:15:00;94014.09;;;21.31;63.55
9839;BME280;4958;48.150;11.506;2023-08-01T08:17:27;94015.69;;;21.51;63.14
9839;BME280;4958;48.150;11.506;2023-08-01T08:19:53;93918.59;;;21.61;61.15
9839;BME280;4958;48.150;11.506;2023-08-01T08:22:20;93923.44;;;21.73;61.13
9839;BME280;4958;48.150;11.506;2023-08-01T08:24:46;93947.03;;;21.86;61.45
9839;BME280;4958;48.150;11.506;2023-08-01T08:27:13;93904.03;;;22.06;60.33
9839;BME280;4958;48.150;11.506;2023-08-01T08:29:41;93886.84;;;22.14;60.14
9839;BME280;4958;48.150;11.506;2023-08-01T08:32:07;93897.63;;;22.12;60.23
9839;BME280;4958;48.150;11.506;2023-08-01T08:34:34;93895.47;;;22.14;60.41
9839;BME280;4958;48.150;11.506;2023-08-01T08:37:00;93910.41;;;22.14;60.59
9839;BME280;4958;48.150;11.506;2023-08-01T08:39:26;93893.63;;;22.15;60.40
9839;BME280;4958;48.150;11.506;2023-08-01T08:41:53;93924.34;;;22.28;60.65
9839;BME280;4958;48.150;11.506;2023-08-01T08:44:20;93899.00;;;22.23;60.17
9839;BME280;4958;48.150;11.506;2023-08-01T08:46:50;93898.97;;;22.10;60.21
9839;BME280;4958;48.150;11.506;2023-08-01T08:49:17;93911.88;;;22.06;60.39
9839;BME280;4958;48.150;11.506;2023-08-01T08:51:45;93959.44;;;22.13;61.25
9839;BME280;4958;48.150;11.506;2023-08-01T08:54:12;93946.06;;;22.15;60.83
9839;BME280;4958;48.150;11.506;2023-08-01T08:56:40;93951.31;;;22.15;60.64
9839;BME280;4958;48.150;11.506;2023-08-01T08:59:06;93938.81;;;21.93;60.65
9839;BME280;4958;48.150;11.506;2023-08-01T09:01:35;93927.75;;;21.96;60.31
9839;BME280;4958;48.150;11.506;2023-08-01T09:04:03;93913.56;;;21.97;60.25
9839;BME280;4958;48.150;11.506;2023-08-01T09:06:31;93937.25;;;21.92;60.69
9839;BME280;4958;48.150;11.506;2023-08-01T09:09:03;93920.97;;;21.76;60.65
9839;BME280;4958;48.150;11.506;2023-08-01T09:11:38;93926.72;;;21.78;60.68
9839;BME280;4958;48.150;11.506;2023-08-01T09:14:05;93944.41;;;21.86;61.32
9839;BME280;4958;48.150;11.506;2023-08-01T09:16:33;93923.25;;;21.83;60.54
9839;BME280;4958;48.150;11.506;2023-08-01T09:18:59;93944.63;;;21.90;60.93
9839;BME280;4958;48.150;11.506;2023-08-01T09:21:31;93929.28;;;21.97;60.28
9839;BME280;4958;48.150;11.506;2023-08-01T09:24:07;93929.78;;;21.99;60.07
9839;BME280;4958;48.150;11.506;2023-08-01T09:26:34;93939.88;;;22.11;60.24
9839;BME280;4958;48.150;11.506;2023-08-01T09:29:00;93921.31;;;22.07;59.69
9839;BME280;4958;48.150;11.506;2023-08-01T09:31:28;93961.25;;;21.99;60.52
9839;BME280;4958;48.150;11.506;2023-08-01T09:33:54;93938.91;;;21.88;60.17
9839;BME280;4958;48.150;11.506;2023-08-01T09:36:21;93962.19;;;21.89;60.65
9839;BME280;4958;48.150;11.506;2023-08-01T09:38:50;93970.84;;;21.90;60.59
9839;BME280;4958;48.150;11.506;2023-08-01T09:41:17;93991.41;;;21.96;60.94
9839;BME280;4958;48.150;11.506;2023-08-01T09:43:45;93990.31;;;22.02;61.20
9839;BME280;4958;48.150;11.506;2023-08-01T09:46:12;93996.63;;;22.01;60.72
9839;BME280;4958;48.150;11.506;2023-08-01T09:48:39;93994.19;;;22.05;61.19
9839;BME280;4958;48.150;11.506;2023-08-01T09:51:08;94012.75;;;22.09;61.50
9839;BME280;4958;48.150;11.506;2023-08-01T09:53:35;93972.56;;;21.94;60.60
9839;BME280;4958;48.150;11.506;2023-08-01T09:56:03;93935.50;;;21.87;60.00
9839;BME280;4958;48.150;11.506;2023-08-01T09:58:32;93924.34;;;21.63;59.32
9839;BME280;4958;48.150;11.506;2023-08-01T10:01:00;93927.25;;;21.61;59.85
9839;BME280;4958;48.150;11.506;2023-08-01T10:03:28;93948.47;;;21.60;59.52
9839;BME280;4958;48.150;11.506;2023-08-01T10:05:55;93983.31;;;21.60;60.39
9839;BME280;4958;48.150;11.506;2023-08-01T10:08:22;93979.63;;;21.43;60.15
9839;BME280;4958;48.150;11.506;2023-08-01T10:10:50;94001.09;;;21.45;60.40
9839;BME280;4958;48.150;11.506;2023-08-01T10:13:20;93981.13;;;21.30;60.06
9839;BME280;4958;48.150;11.506;2023-08-01T10:15:49;93978.50;;;21.30;59.83
9839;BME280;4958;48.150;11.506;2023-08-01T10:18:17;93978.19;;;21.13;60.14
9839;BME280;4958;48.150;11.506;2023-08-01T10:20:43;94075.13;;;21.02;61.31
9839;BME280;4958;48.150;11.506;2023-08-01T10:23:11;94047.78;;;20.90;62.01
9839;BME280;4958;48.150;11.506;2023-08-01T10:25:39;94140.94;;;20.91;63.81
9839;BME280;4958;48.150;11.506;2023-08-01T10:28:06;94275.31;;;20.66;67.95
9839;BME280;4958;48.150;11.506;2023-08-01T10:30:35;94396.00;;;20.39;72.38
9839;BME280;4958;48.150;11.506;2023-08-01T10:33:01;94421.34;;;20.28;73.80
9839;BME280;4958;48.150;11.506;2023-08-01T10:35:34;94430.75;;;20.24;74.44
9839;BME280;4958;48.150;11.506;2023-08-01T10:38:05;94451.44;;;20.06;75.64
9839;BME280;4958;48.150;11.506;2023-08-01T10:40:39;94417.19;;;20.02;74.53
9839;BME280;4958;48.150;11.506;2023-08-01T10:43:08;94406.22;;;20.05;74.92
9839;BME280;4958;48.150;11.506;2023-08-01T10:45:46;94390.00;;;20.13;74.01
9839;BME280;4958;48.150;11.506;2023-08-01T10:48:12;94438.09;;;20.17;76.07
9839;BME280;4958;48.150;11.506;2023-08-01T10:50:39;94415.09;;;20.19;75.31
9839;BME280;4958;48.150;11.506;2023-08-01T10:53:07;94400.44;;;20.23;74.91
9839;BME280;4958;48.150;11.506;2023-08-01T10:55:42;94395.47;;;20.32;74.89
9839;BME280;4958;48.150;11.506;2023-08-01T10:58:09;94357.28;;;20.36;73.91
9839;BME280;4958;48.150;11.506;2023-08-01T11:00:35;94338.44;;;20.44;73.49
9839;BME280;4958;48.150;11.506;2023-08-01T11:03:03;94271.28;;;20.40;71.79
9839;BME280;4958;48.150;11.506;2023-08-01T11:05:30;94270.22;;;20.35;71.83
9839;BME280;4958;48.150;11.506;2023-08-01T11:07:58;94249.88;;;20.27;70.80
9839;BME280;4958;48.150;11.506;2023-08-01T11:10:26;94266.13;;;20.14;71.01
9839;BME280;4958;48.150;11.506;2023-08-01T11:12:53;94276.28;;;20.21;71.49
9839;BME280;4958;48.150;11.506;2023-08-01T11:15:20;94288.59;;;20.20;71.85
9839;BME280;4958;48.150;11.506;2023-08-01T11:17:48;94359.41;;;20.24;73.56
9839;BME280;4958;48.150;11.506;2023-08-01T11:20:17;94354.16;;;20.29;73.06
9839;BME280;4958;48.150;11.506;2023-08-01T11:22:53;94324.09;;;20.31;71.94
9839;BME280;4958;48.150;11.506;2023-08-01T11:25:21;94321.75;;;20.30;71.97
9839;BME280;4958;48.150;11.506;2023-08-01T11:27:56;94311.81;;;20.37;71.50
9839;BME280;4958;48.150;11.506;2023-08-01T11:30:30;94337.41;;;20.35;72.03
9839;BME280;4958;48.150;11.506;2023-08-01T11:32:56;94333.75;;;20.31;71.65
9839;BME280;4958;48.150;11.506;2023-08-01T11:35:24;94360.44;;;20.33;72.51
9839;BME280;4958;48.150;11.506;2023-08-01T11:37:51;94356.50;;;20.35;72.04
9839;BME280;4958;48.150;11.506;2023-08-01T11:40:18;94362.50;;;20.41;72.34
9839;BME280;4958;48.150;11.506;2023-08-01T11:42:48;94381.84;;;20.45;72.81
9839;BME280;4958;48.150;11.506;2023-08-01T11:45:16;94374.50;;;20.47;72.56
9839;BME280;4958;48.150;11.506;2023-08-01T11:47:47;94352.53;;;20.48;71.87
9839;BME280;4958;48.150;11.506;2023-08-01T11:50:14;94406.72;;;20.38;73.54
9839;BME280;4958;48.150;11.506;2023-08-01T11:52:46;94403.28;;;20.32;74.08
9839;BME280;4958;48.150;11.506;2023-08-01T11:55:18;94399.91;;;20.21;73.77
9839;BME280;4958;48.150;11.506;2023-08-01T11:57:51;94407.25;;;20.09;74.02
9839;BME280;4958;48.150;11.506;2023-08-01T12:00:21;94405.13;;;20.26;74.18
9839;BME280;4958;48.150;11.506;2023-08-01T12:02:48;94429.69;;;20.30;74.42
9839;BME280;4958;48.150;11.506;2023-08-01T12:05:21;94432.31;;;20.25;74.50
9839;BME280;4958;48.150;11.506;2023-08-01T12:07:49;94433.38;;;20.29;74.70
9839;BME280;4958;48.150;11.506;2023-08-01T12:10:16;94422.41;;;20.38;74.39
9839;BME280;4958;48.150;11.506;2023-08-01T12:12:44;94425.25;;;20.41;74.40
9839;BME280;4958;48.150;11.506;2023-08-01T12:15:12;94412.41;;;20.55;73.77
9839;BME280;4958;48.150;11.506;2023-08-01T12:17:38;94415.22;;;20.74;73.31
9839;BME280;4958;48.150;11.506;2023-08-01T12:20:06;94410.00;;;20.74;72.89
9839;BME280;4958;48.150;11.506;2023-08-01T12:22:33;94424.31;;;20.81;72.78
9839;BME280;4958;48.150;11.506;2023-08-01T12:25:01;94429.00;;;20.94;72.54
9839;BME280;4958;48.150;11.506;2023-08-01T12:27:27;94413.59;;;20.83;72.67
9839;BME280;4958;48.150;11.506;2023-08-01T12:29:55;94418.81;;;20.83;72.69
9839;BME280;4958;48.150;11.506;2023-08-01T12:32:24;94436.34;;;20.82;73.16
9839;BME280;4958;48.150;11.506;2023-08-01T12:34:51;94426.94;;;20.81;72.83
9839;BME280;4958;48.150;11.506;2023-08-01T12:37:17;94410.72;;;20.84;73.16
9839;BME280;4958;48.150;11.506;2023-08-01T12:39:44;94418.25;;;20.96;72.81
9839;BME280;4958;48.150;11.506;2023-08-01T12:42:11;94389.16;;;21.02;72.17
9839;BME280;4958;48.150;11.506;2023-08-01T12:44:38;94405.66;;;20.98;72.40
9839;BME280;4958;48.150;11.506;2023-08-01T12:47:05;94394.41;;;20.97;72.50
9839;BME280;4958;48.150;11.506;2023-08-01T12:49:32;94393.88;;;21.00;72.62
9839;BME280;4958;48.150;11.506;2023-08-01T12:51:59;94443.81;;;21.14;74.20
9839;BME280;4958;48.150;11.506;2023-08-01T12:54:25;94510.53;;;21.22;76.84
9839;BME280;4958;48.150;11.506;2023-08-01T12:56:54;94525.97;;;21.28;77.39
9839;BME280;4958;48.150;11.506;2023-08-01T12:59:22;94521.50;;;21.78;77.07
9839;BME280;4958;48.150;11.506;2023-08-01T13:01:49;94482.13;;;22.22;75.29
9839;BME280;4958;48.150;11.506;2023-08-01T13:04:15;94368.50;;;22.08;71.33
9839;BME280;4958;48.150;11.506;2023-08-01T13:06:43;94385.75;;;21.80;72.07
9839;BME280;4958;48.150;11.506;2023-08-01T13:09:10;94382.25;;;21.61;72.57